createdAt,value
2018-01-16T00:00:43.739Z,55.80
2018-01-16T00:01:48.486Z,55.80
2018-01-16T00:02:53.348Z,55.80
2018-01-16T00:03:58.343Z,55.70
2018-01-16T00:05:03.137Z,55.70
2018-01-16T00:06:08.158Z,55.70
2018-01-16T00:07:14.374Z,55.70
2018-01-16T00:08:19.878Z,55.70
2018-01-16T00:09:26.226Z,55.70
2018-01-16T00:10:31.681Z,55.70
2018-01-16T00:11:37.703Z,55.80
2018-01-16T00:12:59.276Z,55.70
2018-01-16T00:14:04.063Z,55.70
2018-01-16T00:15:08.985Z,55.60
2018-01-16T00:16:13.823Z,55.60
2018-01-16T00:17:18.508Z,55.60
2018-01-16T00:18:23.348Z,55.70
2018-01-16T00:19:28.211Z,55.70
2018-01-16T00:20:33.037Z,55.80
2018-01-16T00:21:37.893Z,55.80
2018-01-16T00:22:42.741Z,55.90
2018-01-16T00:23:47.591Z,55.80
2018-01-16T00:24:52.592Z,55.80
2018-01-16T00:25:58.766Z,55.90
2018-01-16T00:27:03.818Z,55.90
2018-01-16T00:28:08.596Z,55.90
2018-01-16T00:29:13.513Z,55.90
2018-01-16T00:30:18.263Z,56.00
2018-01-16T00:31:23.175Z,56.60
2018-01-16T00:32:27.924Z,55.90
2018-01-16T00:33:32.827Z,55.90
2018-01-16T00:34:37.582Z,56.00
2018-01-16T00:35:42.376Z,55.90
2018-01-16T00:36:47.176Z,55.90
2018-01-16T00:37:51.865Z,56.00
2018-01-16T00:38:56.626Z,56.60
2018-01-16T00:40:01.622Z,56.00
2018-01-16T00:41:06.527Z,56.00
2018-01-16T00:42:11.234Z,55.90
2018-01-16T00:43:16.129Z,56.00
2018-01-16T00:44:22.383Z,55.90
2018-01-16T00:45:27.382Z,56.00
2018-01-16T00:46:32.256Z,55.90
2018-01-16T00:47:37.177Z,55.90
2018-01-16T00:48:42.179Z,55.90
2018-01-16T00:49:47.086Z,55.90
2018-01-16T00:50:51.927Z,56.00
2018-01-16T00:51:56.660Z,55.90
2018-01-16T00:53:01.546Z,55.90
2018-01-16T00:54:06.474Z,55.90
2018-01-16T00:55:11.158Z,55.80
2018-01-16T00:56:15.901Z,55.80
2018-01-16T00:57:20.788Z,55.90
2018-01-16T00:58:25.687Z,55.80
2018-01-16T00:59:30.404Z,55.80
2018-01-16T01:00:35.115Z,55.90
2018-01-16T01:01:40.023Z,55.80
2018-01-16T01:02:45.001Z,55.80
2018-01-16T01:03:49.904Z,55.90
2018-01-16T01:04:54.908Z,55.90
2018-01-16T01:05:59.693Z,55.90
2018-01-16T01:07:04.593Z,56.50
2018-01-16T01:08:09.363Z,55.80
2018-01-16T01:09:14.325Z,55.80
2018-01-16T01:10:19.049Z,55.80
2018-01-16T01:11:24.169Z,55.90
2018-01-16T01:12:28.914Z,55.90
2018-01-16T01:13:33.736Z,55.90
2018-01-16T01:14:38.677Z,55.90
2018-01-16T01:15:43.505Z,55.90
2018-01-16T01:16:48.254Z,55.80
2018-01-16T01:17:53.005Z,55.90
2018-01-16T01:18:57.864Z,55.90
2018-01-16T01:20:02.922Z,55.90
2018-01-16T01:21:08.633Z,55.90
2018-01-16T01:22:13.546Z,55.90
2018-01-16T01:23:18.449Z,55.80
2018-01-16T01:24:23.265Z,55.90
2018-01-16T01:25:28.053Z,56.00
2018-01-16T01:26:33.022Z,55.90
2018-01-16T01:27:37.805Z,55.90
2018-01-16T01:28:42.578Z,55.90
2018-01-16T01:29:47.365Z,55.90
2018-01-16T01:30:52.183Z,55.90
2018-01-16T01:31:56.970Z,56.00
2018-01-16T01:33:01.832Z,55.90
2018-01-16T01:34:06.808Z,55.90
2018-01-16T01:35:11.740Z,55.90
2018-01-16T01:36:16.572Z,55.90
2018-01-16T01:37:21.404Z,56.00
2018-01-16T01:38:26.656Z,56.00
2018-01-16T01:39:32.337Z,56.00
2018-01-16T01:40:37.371Z,56.00
2018-01-16T01:41:42.158Z,56.00
2018-01-16T01:42:47.046Z,56.00
2018-01-16T01:43:51.928Z,56.00
2018-01-16T01:44:56.868Z,56.00
2018-01-16T01:46:01.577Z,55.90
2018-01-16T01:47:06.490Z,56.00
2018-01-16T01:48:11.353Z,56.00
2018-01-16T01:49:16.250Z,56.00
2018-01-16T01:50:21.035Z,56.10
2018-01-16T01:51:25.894Z,56.00
2018-01-16T01:52:30.667Z,56.00
2018-01-16T01:53:35.385Z,56.00
2018-01-16T01:54:40.199Z,56.00
2018-01-16T01:55:45.122Z,56.10
2018-01-16T01:56:49.834Z,56.00
2018-01-16T01:57:54.576Z,56.00
2018-01-16T01:58:59.479Z,56.00
2018-01-16T02:00:04.386Z,56.00
2018-01-16T02:01:09.378Z,55.90
2018-01-16T02:02:14.140Z,55.90
2018-01-16T02:03:19.125Z,55.90
2018-01-16T02:04:23.979Z,56.00
2018-01-16T02:05:28.870Z,55.90
2018-01-16T02:06:33.666Z,55.90
2018-01-16T02:07:38.424Z,55.90
2018-01-16T02:08:43.212Z,55.90
2018-01-16T02:09:48.104Z,55.90
2018-01-16T02:10:52.845Z,55.90
2018-01-16T02:11:57.612Z,56.00
2018-01-16T02:13:02.418Z,55.90
2018-01-16T02:14:07.236Z,55.90
2018-01-16T02:15:11.966Z,56.00
2018-01-16T02:16:16.826Z,56.00
2018-01-16T02:17:21.580Z,56.00
2018-01-16T02:18:26.361Z,56.00
2018-01-16T02:19:31.247Z,56.00
2018-01-16T02:20:36.043Z,55.90
2018-01-16T02:21:41.011Z,55.90
2018-01-16T02:22:45.902Z,55.90
2018-01-16T02:23:50.820Z,55.90
2018-01-16T02:24:55.690Z,55.90
2018-01-16T02:26:00.501Z,55.90
2018-01-16T02:27:05.208Z,55.90
2018-01-16T02:28:10.062Z,55.90
2018-01-16T02:29:14.781Z,55.90
2018-01-16T02:30:19.911Z,55.90
2018-01-16T02:31:24.683Z,55.90
2018-01-16T02:32:29.539Z,55.90
2018-01-16T02:33:34.451Z,55.90
2018-01-16T02:34:39.276Z,55.90
2018-01-16T02:35:44.021Z,55.90
2018-01-16T02:36:48.827Z,55.90
2018-01-16T02:37:53.538Z,56.00
2018-01-16T02:38:58.291Z,55.90
2018-01-16T02:40:03.117Z,55.90
2018-01-16T02:41:07.983Z,55.90
2018-01-16T02:42:12.823Z,56.00
2018-01-16T02:43:17.692Z,55.90
2018-01-16T02:44:22.540Z,55.90
2018-01-16T02:45:27.329Z,55.90
2018-01-16T02:46:32.197Z,55.90
2018-01-16T02:47:37.287Z,55.90
2018-01-16T02:48:42.034Z,55.90
2018-01-16T02:49:46.961Z,55.90
2018-01-16T02:50:51.941Z,55.90
2018-01-16T02:51:56.677Z,55.90
2018-01-16T02:53:01.490Z,56.00
2018-01-16T02:54:06.268Z,55.80
2018-01-16T02:55:10.966Z,55.90
2018-01-16T02:56:16.131Z,56.00
2018-01-16T02:57:20.975Z,55.90
2018-01-16T02:58:25.783Z,55.90
2018-01-16T02:59:30.657Z,55.90
2018-01-16T03:00:35.404Z,55.90
2018-01-16T03:01:40.134Z,55.80
2018-01-16T03:02:45.045Z,55.90
2018-01-16T03:03:49.797Z,55.90
2018-01-16T03:04:54.683Z,55.90
2018-01-16T03:05:59.441Z,55.90
2018-01-16T03:07:04.411Z,55.90
2018-01-16T03:08:09.223Z,55.80
2018-01-16T03:09:13.963Z,55.80
2018-01-16T03:10:18.840Z,55.80
2018-01-16T03:11:23.681Z,55.80
2018-01-16T03:12:28.537Z,55.90
2018-01-16T03:13:33.409Z,55.90
2018-01-16T03:14:39.220Z,55.90
2018-01-16T03:15:44.253Z,55.90
2018-01-16T03:16:49.259Z,55.90
2018-01-16T03:17:54.064Z,55.80
2018-01-16T03:18:58.811Z,55.80
2018-01-16T03:20:03.661Z,55.80
2018-01-16T03:21:08.486Z,55.80
2018-01-16T03:22:13.228Z,55.80
2018-01-16T03:23:18.297Z,55.90
2018-01-16T03:24:23.204Z,55.80
2018-01-16T03:25:27.950Z,55.80
2018-01-16T03:26:32.826Z,55.80
2018-01-16T03:27:37.772Z,55.90
2018-01-16T03:28:42.637Z,55.90
2018-01-16T03:29:47.492Z,55.90
2018-01-16T03:30:52.412Z,55.80
2018-01-16T03:31:57.573Z,55.90
2018-01-16T03:33:02.677Z,55.90
2018-01-16T03:34:07.548Z,55.90
2018-01-16T03:35:12.271Z,55.90
2018-01-16T03:36:17.142Z,55.90
2018-01-16T03:37:22.003Z,55.80
2018-01-16T03:38:26.739Z,55.80
2018-01-16T03:39:31.652Z,55.80
2018-01-16T03:40:36.412Z,55.80
2018-01-16T03:41:41.285Z,55.80
2018-01-16T03:42:45.984Z,55.80
2018-01-16T03:43:50.926Z,55.80
2018-01-16T03:44:55.735Z,55.80
2018-01-16T03:46:00.617Z,55.80
2018-01-16T03:47:05.468Z,55.80
2018-01-16T03:48:10.372Z,55.80
2018-01-16T03:49:15.219Z,55.90
2018-01-16T03:50:20.174Z,55.80
2018-01-16T03:51:26.118Z,55.80
2018-01-16T03:52:30.892Z,55.90
2018-01-16T03:53:35.881Z,55.80
2018-01-16T03:54:40.663Z,55.90
2018-01-16T03:55:45.420Z,56.50
2018-01-16T03:56:50.423Z,55.80
2018-01-16T03:57:55.399Z,55.80
2018-01-16T03:59:00.238Z,55.80
2018-01-16T04:00:41.204Z,55.80
2018-01-16T04:01:35.096Z,55.90
2018-01-16T04:02:39.939Z,55.80
2018-01-16T04:03:54.748Z,55.80
2018-01-16T04:05:33.512Z,55.80
2018-01-16T04:06:39.500Z,55.90
2018-01-16T04:07:44.221Z,55.80
2018-01-16T04:08:48.960Z,55.80
2018-01-16T04:09:53.990Z,55.80
2018-01-16T04:10:58.888Z,55.80
2018-01-16T04:12:03.982Z,55.80
2018-01-16T04:13:08.684Z,55.80
2018-01-16T04:14:13.380Z,55.80
2018-01-16T04:15:18.282Z,55.80
2018-01-16T04:16:23.831Z,55.80
2018-01-16T04:17:28.663Z,55.80
2018-01-16T04:18:33.437Z,55.70
2018-01-16T04:19:38.286Z,55.70
2018-01-16T04:20:43.195Z,55.70
2018-01-16T04:21:48.075Z,55.70
2018-01-16T04:22:53.005Z,55.70
2018-01-16T04:23:58.552Z,55.80
2018-01-16T04:25:03.441Z,55.80
2018-01-16T04:26:08.451Z,55.80
2018-01-16T04:27:13.184Z,55.70
2018-01-16T04:28:18.024Z,55.70
2018-01-16T04:29:22.997Z,55.70
2018-01-16T04:30:27.900Z,55.70
2018-01-16T04:31:32.813Z,55.70
2018-01-16T04:32:37.951Z,55.80
2018-01-16T04:33:42.713Z,55.70
2018-01-16T04:34:47.617Z,55.80
2018-01-16T04:35:52.349Z,55.70
2018-01-16T04:36:57.094Z,55.70
2018-01-16T04:38:02.056Z,55.70
2018-01-16T04:39:07.078Z,55.70
2018-01-16T04:40:11.879Z,55.70
2018-01-16T04:41:16.698Z,55.70
2018-01-16T04:42:21.692Z,55.70
2018-01-16T04:43:26.419Z,55.70
2018-01-16T04:44:31.179Z,55.70
2018-01-16T04:45:36.151Z,55.70
2018-01-16T04:46:41.393Z,55.60
2018-01-16T04:47:46.309Z,55.70
2018-01-16T04:48:51.093Z,55.70
2018-01-16T04:49:56.040Z,55.70
2018-01-16T04:51:00.856Z,55.70
2018-01-16T04:52:05.636Z,55.70
2018-01-16T04:53:10.703Z,55.60
2018-01-16T04:54:15.644Z,55.70
2018-01-16T04:55:20.420Z,55.60
2018-01-16T04:56:25.283Z,55.60
2018-01-16T04:57:30.216Z,55.70
2018-01-16T04:58:35.124Z,55.60
2018-01-16T04:59:40.048Z,55.60
2018-01-16T05:00:44.953Z,55.60
2018-01-16T05:01:49.978Z,55.70
2018-01-16T05:02:54.763Z,55.60
2018-01-16T05:03:59.732Z,55.60
2018-01-16T05:05:04.870Z,55.60
2018-01-16T05:06:09.693Z,55.60
2018-01-16T05:07:14.610Z,55.60
2018-01-16T05:08:19.352Z,55.60
2018-01-16T05:09:24.220Z,55.50
2018-01-16T05:10:29.241Z,55.60
2018-01-16T05:11:34.122Z,55.50
2018-01-16T05:12:39.006Z,55.60
2018-01-16T05:13:43.810Z,55.60
2018-01-16T05:14:48.620Z,55.60
2018-01-16T05:15:53.315Z,55.60
2018-01-16T05:16:58.175Z,55.50
2018-01-16T05:18:02.929Z,55.60
2018-01-16T05:19:07.692Z,55.50
2018-01-16T05:20:12.453Z,55.50
2018-01-16T05:21:17.240Z,55.50
2018-01-16T05:22:22.134Z,55.60
2018-01-16T05:23:27.451Z,55.60
2018-01-16T05:24:32.269Z,55.60
2018-01-16T05:25:37.105Z,56.20
2018-01-16T05:26:41.868Z,55.60
2018-01-16T05:27:47.041Z,55.60
2018-01-16T05:28:51.827Z,55.60
2018-01-16T05:29:56.713Z,55.60
2018-01-16T05:31:01.771Z,55.50
2018-01-16T05:32:06.700Z,55.60
2018-01-16T05:33:11.627Z,55.60
2018-01-16T05:34:16.536Z,55.50
2018-01-16T05:35:21.482Z,55.50
2018-01-16T05:36:26.364Z,55.60
2018-01-16T05:37:31.286Z,55.50
2018-01-16T05:38:36.103Z,55.50
2018-01-16T05:39:41.015Z,55.50
2018-01-16T05:40:47.497Z,55.50
2018-01-16T05:41:52.934Z,55.60
2018-01-16T05:42:57.813Z,55.50
2018-01-16T05:44:02.767Z,55.60
2018-01-16T05:45:07.645Z,55.50
2018-01-16T05:46:12.644Z,56.20
2018-01-16T05:47:17.443Z,55.60
2018-01-16T05:48:23.820Z,55.50
2018-01-16T05:49:28.799Z,55.50
2018-01-16T05:50:33.600Z,55.50
2018-01-16T05:51:38.458Z,55.60
2018-01-16T05:52:46.198Z,55.50
2018-01-16T05:53:51.001Z,55.60
2018-01-16T05:54:55.890Z,55.50
2018-01-16T05:56:00.642Z,55.50
2018-01-16T05:57:05.585Z,56.10
2018-01-16T05:58:10.937Z,55.40
2018-01-16T05:59:15.888Z,55.40
2018-01-16T06:00:20.697Z,55.50
2018-01-16T06:01:25.499Z,55.50
2018-01-16T06:02:30.252Z,55.50
2018-01-16T06:03:35.093Z,55.40
2018-01-16T06:04:39.864Z,55.40
2018-01-16T06:05:44.624Z,55.40
2018-01-16T06:06:49.524Z,54.70
2018-01-16T06:07:54.516Z,52.50
2018-01-16T06:08:59.309Z,51.30
2018-01-16T06:10:04.289Z,51.10
2018-01-16T06:11:09.176Z,51.20
2018-01-16T06:12:14.094Z,51.30
2018-01-16T06:13:19.020Z,50.10
2018-01-16T06:14:24.010Z,49.80
2018-01-16T06:15:28.993Z,50.00
2018-01-16T06:16:33.931Z,50.30
2018-01-16T06:17:38.737Z,50.60
2018-01-16T06:18:43.698Z,50.70
2018-01-16T06:19:48.660Z,50.50
2018-01-16T06:20:53.441Z,50.30
2018-01-16T06:21:58.225Z,50.20
2018-01-16T06:23:03.161Z,50.20
2018-01-16T06:24:08.128Z,50.20
2018-01-16T06:25:12.948Z,50.30
2018-01-16T06:26:17.779Z,50.30
2018-01-16T06:27:23.049Z,50.30
2018-01-16T06:28:28.427Z,50.30
2018-01-16T06:29:34.082Z,50.20
2018-01-16T06:30:38.858Z,50.10
2018-01-16T06:31:43.718Z,50.10
2018-01-16T06:32:48.755Z,50.20
2018-01-16T06:33:53.630Z,50.20
2018-01-16T06:34:58.624Z,50.10
2018-01-16T06:36:03.554Z,50.00
2018-01-16T06:37:08.657Z,50.50
2018-01-16T06:38:13.633Z,51.20
2018-01-16T06:39:18.747Z,51.00
2018-01-16T06:40:23.458Z,50.70
2018-01-16T06:41:28.211Z,50.50
2018-01-16T06:42:33.392Z,50.40
2018-01-16T06:43:38.537Z,50.40
2018-01-16T06:44:44.462Z,50.40
2018-01-16T06:45:50.051Z,50.40
2018-01-16T06:46:55.211Z,50.50
2018-01-16T06:48:00.140Z,50.50
2018-01-16T06:49:05.019Z,50.80
2018-01-16T06:50:09.950Z,50.80
2018-01-16T06:51:14.683Z,50.80
2018-01-16T06:52:20.409Z,50.80
2018-01-16T06:53:25.504Z,51.10
2018-01-16T06:54:30.420Z,51.00
2018-01-16T06:55:35.248Z,51.10
2018-01-16T06:56:40.304Z,51.00
2018-01-16T06:57:45.093Z,51.00
2018-01-16T06:58:49.997Z,51.10
2018-01-16T06:59:55.059Z,51.10
2018-01-16T07:01:00.025Z,51.10
2018-01-16T07:02:04.775Z,50.90
2018-01-16T07:03:09.577Z,50.90
2018-01-16T07:04:14.402Z,51.00
2018-01-16T07:05:19.331Z,51.00
2018-01-16T07:06:24.246Z,51.00
2018-01-16T07:07:29.166Z,51.10
2018-01-16T07:08:34.254Z,51.10
2018-01-16T07:09:39.508Z,51.30
2018-01-16T07:11:03.598Z,51.50
2018-01-16T07:12:08.491Z,51.60
2018-01-16T07:13:13.621Z,51.80
2018-01-16T07:14:18.921Z,51.80
2018-01-16T07:15:24.633Z,52.00
2018-01-16T07:16:30.522Z,52.10
2018-01-16T07:17:35.412Z,52.20
2018-01-16T07:18:40.217Z,52.30
2018-01-16T07:19:45.014Z,52.40
2018-01-16T07:20:49.837Z,52.40
2018-01-16T07:21:55.281Z,52.70
2018-01-16T07:23:00.756Z,52.70
2018-01-16T07:24:05.893Z,52.70
2018-01-16T07:25:10.809Z,52.80
2018-01-16T07:26:17.087Z,52.80
2018-01-16T07:27:21.808Z,52.80
2018-01-16T07:28:26.526Z,52.80
2018-01-16T07:29:31.428Z,52.80
2018-01-16T07:30:36.351Z,52.80
2018-01-16T07:31:41.619Z,52.80
2018-01-16T07:32:46.351Z,52.70
2018-01-16T07:33:52.968Z,52.80
2018-01-16T07:34:58.510Z,52.80
2018-01-16T07:36:03.472Z,52.80
2018-01-16T07:37:08.507Z,52.90
2018-01-16T07:38:16.541Z,52.90
2018-01-16T07:39:21.294Z,52.90
2018-01-16T07:40:26.014Z,53.10
2018-01-16T07:41:30.905Z,53.20
2018-01-16T07:42:35.617Z,53.10
2018-01-16T07:43:40.362Z,53.20
2018-01-16T07:44:45.261Z,53.20
2018-01-16T07:45:50.123Z,53.30
2018-01-16T07:46:55.071Z,53.30
2018-01-16T07:47:59.917Z,53.30
2018-01-16T07:49:04.746Z,53.30
2018-01-16T07:50:09.491Z,53.30
2018-01-16T07:51:14.358Z,53.40
2018-01-16T07:52:19.273Z,53.50
2018-01-16T07:53:24.058Z,53.50
2018-01-16T07:54:28.914Z,53.40
2018-01-16T07:55:33.667Z,53.40
2018-01-16T07:56:38.359Z,53.30
2018-01-16T07:57:43.173Z,53.30
2018-01-16T07:58:47.884Z,53.20
2018-01-16T07:59:52.774Z,53.20
2018-01-16T08:00:57.725Z,53.10
2018-01-16T08:02:02.743Z,53.10
2018-01-16T08:03:07.633Z,53.00
2018-01-16T08:04:12.500Z,53.00
2018-01-16T08:05:17.276Z,53.10
2018-01-16T08:06:22.123Z,53.00
2018-01-16T08:07:26.971Z,53.00
2018-01-16T08:08:31.787Z,53.10
2018-01-16T08:09:36.929Z,53.10
2018-01-16T08:10:41.769Z,53.10
2018-01-16T08:11:46.777Z,53.10
2018-01-16T08:12:51.652Z,53.10
2018-01-16T08:13:56.353Z,53.10
2018-01-16T08:15:01.258Z,53.00
2018-01-16T08:16:06.041Z,53.10
2018-01-16T08:17:10.792Z,53.10
2018-01-16T08:18:15.770Z,53.10
2018-01-16T08:19:20.599Z,53.20
2018-01-16T08:20:25.301Z,53.20
2018-01-16T08:21:30.009Z,53.20
2018-01-16T08:22:34.786Z,53.20
2018-01-16T08:23:39.770Z,53.20
2018-01-16T08:24:44.609Z,53.20
2018-01-16T08:25:49.384Z,53.20
2018-01-16T08:26:54.189Z,53.20
2018-01-16T08:27:59.084Z,53.40
2018-01-16T08:29:04.044Z,53.90
2018-01-16T08:30:08.831Z,53.30
2018-01-16T08:31:13.773Z,53.30
2018-01-16T08:32:18.478Z,53.30
2018-01-16T08:33:23.394Z,53.40
2018-01-16T08:34:28.245Z,53.40
2018-01-16T08:35:32.984Z,53.40
2018-01-16T08:36:37.838Z,53.40
2018-01-16T08:37:42.811Z,53.40
2018-01-16T08:38:47.567Z,53.40
2018-01-16T08:39:52.523Z,53.60
2018-01-16T08:40:57.318Z,53.40
2018-01-16T08:42:02.153Z,53.50
2018-01-16T08:43:06.868Z,53.50
2018-01-16T08:44:11.615Z,53.50
2018-01-16T08:45:16.348Z,53.50
2018-01-16T08:46:21.274Z,53.50
2018-01-16T08:47:26.015Z,53.60
2018-01-16T08:48:30.941Z,53.50
2018-01-16T08:49:35.918Z,53.50
2018-01-16T08:50:40.665Z,53.50
2018-01-16T08:51:45.717Z,53.50
2018-01-16T08:52:50.689Z,53.50
2018-01-16T08:53:55.668Z,53.70
2018-01-16T08:55:01.524Z,53.70
2018-01-16T08:56:06.809Z,53.70
2018-01-16T08:57:11.572Z,53.70
2018-01-16T08:58:16.442Z,53.90
2018-01-16T08:59:21.337Z,54.20
2018-01-16T09:00:26.090Z,54.20
2018-01-16T09:01:31.108Z,54.40
2018-01-16T09:02:36.020Z,54.50
2018-01-16T09:03:40.817Z,54.60
2018-01-16T09:04:45.647Z,54.70
2018-01-16T09:05:50.699Z,54.80
2018-01-16T09:06:55.602Z,54.70
2018-01-16T09:08:00.597Z,54.70
2018-01-16T09:09:05.392Z,54.80
2018-01-16T09:10:10.228Z,54.90
2018-01-16T09:11:15.215Z,54.80
2018-01-16T09:12:19.955Z,54.90
2018-01-16T09:13:26.023Z,54.90
2018-01-16T09:14:31.123Z,54.90
2018-01-16T09:15:36.042Z,55.00
2018-01-16T09:16:40.888Z,55.00
2018-01-16T09:17:45.785Z,55.00
2018-01-16T09:18:50.673Z,55.00
2018-01-16T09:19:55.524Z,55.10
2018-01-16T09:21:00.302Z,55.00
2018-01-16T09:22:05.301Z,55.20
2018-01-16T09:23:10.160Z,55.50
2018-01-16T09:24:14.992Z,55.80
2018-01-16T09:25:19.788Z,56.00
2018-01-16T09:26:24.680Z,55.80
2018-01-16T09:27:29.468Z,56.10
2018-01-16T09:28:34.295Z,56.30
2018-01-16T09:29:39.146Z,56.30
2018-01-16T09:30:46.375Z,55.80
2018-01-16T09:31:51.838Z,55.60
2018-01-16T09:32:56.666Z,55.80
2018-01-16T09:34:02.619Z,56.30
2018-01-16T09:35:07.460Z,56.30
2018-01-16T09:36:12.377Z,56.40
2018-01-16T09:37:17.206Z,56.40
2018-01-16T09:38:22.186Z,56.40
2018-01-16T09:39:27.306Z,56.40
2018-01-16T09:40:32.258Z,56.10
2018-01-16T09:41:37.109Z,56.30
2018-01-16T09:42:42.101Z,56.40
2018-01-16T09:43:49.213Z,56.30
2018-01-16T09:44:53.950Z,56.40
2018-01-16T09:45:58.724Z,56.30
2018-01-16T09:47:03.587Z,56.20
2018-01-16T09:48:08.524Z,56.20
2018-01-16T09:49:13.560Z,56.40
2018-01-16T09:50:18.526Z,56.20
2018-01-16T09:51:23.444Z,56.00
2018-01-16T09:52:28.337Z,56.00
2018-01-16T09:53:33.206Z,55.80
2018-01-16T09:54:37.969Z,55.80
2018-01-16T09:55:42.688Z,55.70
2018-01-16T09:56:47.532Z,55.80
2018-01-16T09:57:52.514Z,55.70
2018-01-16T09:58:57.265Z,55.70
2018-01-16T10:00:02.026Z,55.70
2018-01-16T10:01:06.788Z,55.70
2018-01-16T10:02:11.617Z,55.60
2018-01-16T10:03:16.607Z,55.60
2018-01-16T10:04:21.514Z,55.50
2018-01-16T10:05:26.474Z,55.40
2018-01-16T10:06:31.484Z,55.30
2018-01-16T10:07:36.527Z,55.30
2018-01-16T10:08:41.707Z,55.30
2018-01-16T10:09:46.974Z,55.30
2018-01-16T10:10:52.031Z,55.30
2018-01-16T10:11:56.880Z,55.30
2018-01-16T10:13:01.701Z,55.30
2018-01-16T10:14:06.796Z,55.20
2018-01-16T10:15:11.778Z,55.20
2018-01-16T10:16:16.686Z,55.30
2018-01-16T10:17:21.477Z,55.50
2018-01-16T10:18:26.548Z,55.70
2018-01-16T10:19:31.330Z,55.80
2018-01-16T10:20:36.565Z,55.90
2018-01-16T10:21:41.950Z,56.60
2018-01-16T10:22:46.711Z,56.10
2018-01-16T10:23:51.960Z,56.20
2018-01-16T10:24:56.687Z,56.30
2018-01-16T10:26:01.618Z,56.30
2018-01-16T10:27:06.404Z,56.30
2018-01-16T10:28:11.295Z,56.40
2018-01-16T10:29:16.174Z,56.40
2018-01-16T10:30:21.142Z,56.40
2018-01-16T10:31:25.923Z,56.30
2018-01-16T10:32:30.939Z,56.40
2018-01-16T10:33:35.925Z,56.20
2018-01-16T10:34:40.711Z,56.10
2018-01-16T10:35:45.573Z,56.00
2018-01-16T10:36:50.579Z,56.00
2018-01-16T10:37:55.343Z,56.00
2018-01-16T10:39:00.131Z,55.90
2018-01-16T10:40:04.860Z,56.10
2018-01-16T10:41:09.799Z,56.30
2018-01-16T10:42:14.699Z,56.40
2018-01-16T10:43:19.628Z,56.60
2018-01-16T10:44:24.618Z,56.70
2018-01-16T10:45:29.595Z,57.10
2018-01-16T10:46:34.500Z,57.50
2018-01-16T10:47:39.359Z,57.50
2018-01-16T10:48:44.375Z,57.50
2018-01-16T10:49:49.164Z,57.30
2018-01-16T10:50:53.968Z,57.30
2018-01-16T10:51:58.892Z,57.50
2018-01-16T10:53:03.686Z,57.30
2018-01-16T10:54:08.388Z,57.20
2018-01-16T10:55:13.256Z,56.80
2018-01-16T10:56:18.037Z,56.90
2018-01-16T10:57:22.957Z,56.80
2018-01-16T10:58:28.098Z,56.80
2018-01-16T10:59:33.184Z,56.90
2018-01-16T11:00:38.036Z,57.10
2018-01-16T11:01:42.780Z,57.10
2018-01-16T11:02:47.492Z,57.30
2018-01-16T11:03:52.393Z,57.30
2018-01-16T11:04:57.191Z,57.30
2018-01-16T11:06:02.306Z,57.30
2018-01-16T11:07:07.271Z,57.40
2018-01-16T11:08:12.194Z,57.40
2018-01-16T11:09:16.908Z,57.50
2018-01-16T11:10:21.701Z,57.70
2018-01-16T11:11:26.408Z,57.80
2018-01-16T11:12:31.423Z,57.50
2018-01-16T11:13:36.188Z,57.50
2018-01-16T11:14:41.126Z,57.40
2018-01-16T11:15:46.019Z,57.30
2018-01-16T11:16:50.983Z,57.30
2018-01-16T11:17:55.919Z,57.20
2018-01-16T11:19:00.765Z,57.20
2018-01-16T11:20:05.495Z,57.10
2018-01-16T11:21:10.225Z,57.20
2018-01-16T11:22:15.034Z,57.20
2018-01-16T11:23:19.760Z,57.10
2018-01-16T11:24:24.549Z,57.10
2018-01-16T11:25:29.429Z,57.00
2018-01-16T11:26:34.266Z,57.00
2018-01-16T11:27:39.119Z,57.00
2018-01-16T11:28:43.850Z,57.10
2018-01-16T11:29:48.550Z,57.40
2018-01-16T11:30:53.329Z,57.10
2018-01-16T11:31:58.251Z,57.10
2018-01-16T11:33:03.138Z,57.20
2018-01-16T11:34:08.120Z,57.20
2018-01-16T11:35:12.995Z,57.10
2018-01-16T11:36:17.876Z,57.00
2018-01-16T11:37:22.655Z,57.10
2018-01-16T11:38:27.334Z,57.00
2018-01-16T11:39:32.121Z,57.00
2018-01-16T11:40:36.933Z,57.00
2018-01-16T11:41:41.822Z,57.00
2018-01-16T11:42:46.715Z,57.00
2018-01-16T11:43:51.608Z,57.00
2018-01-16T11:44:56.490Z,57.00
2018-01-16T11:46:01.372Z,57.10
2018-01-16T11:47:06.228Z,57.00
2018-01-16T11:48:11.106Z,57.00
2018-01-16T11:49:15.836Z,57.00
2018-01-16T11:50:20.608Z,57.00
2018-01-16T11:51:25.388Z,56.90
2018-01-16T11:52:30.317Z,57.00
2018-01-16T11:53:35.186Z,57.00
2018-01-16T11:54:40.049Z,56.90
2018-01-16T11:55:44.886Z,56.90
2018-01-16T11:56:49.636Z,56.90
2018-01-16T11:57:54.568Z,56.90
2018-01-16T11:58:59.301Z,56.90
2018-01-16T12:00:04.116Z,56.90
2018-01-16T12:01:09.047Z,56.80
2018-01-16T12:02:13.976Z,56.90
2018-01-16T12:03:18.896Z,56.80
2018-01-16T12:04:23.702Z,56.70
2018-01-16T12:05:28.380Z,56.90
2018-01-16T12:06:33.281Z,56.80
2018-01-16T12:07:38.417Z,56.80
2018-01-16T12:08:43.275Z,56.80
2018-01-16T12:09:48.137Z,56.70
2018-01-16T12:10:53.757Z,56.70
2018-01-16T12:11:58.615Z,56.80
2018-01-16T12:13:03.326Z,56.80
2018-01-16T12:14:08.297Z,56.70
2018-01-16T12:15:13.117Z,56.70
2018-01-16T12:16:18.050Z,56.70
2018-01-16T12:17:23.147Z,56.70
2018-01-16T12:18:28.281Z,56.70
2018-01-16T12:19:32.970Z,56.70
2018-01-16T12:20:37.783Z,56.70
2018-01-16T12:21:42.625Z,56.70
2018-01-16T12:22:47.357Z,56.70
2018-01-16T12:23:52.060Z,56.70
2018-01-16T12:24:56.814Z,56.70
2018-01-16T12:26:01.626Z,56.70
2018-01-16T12:27:06.404Z,56.80
2018-01-16T12:28:11.105Z,56.70
2018-01-16T12:29:16.145Z,56.80
2018-01-16T12:30:20.853Z,56.70
2018-01-16T12:31:25.609Z,56.60
2018-01-16T12:32:30.501Z,56.70
2018-01-16T12:33:35.380Z,56.70
2018-01-16T12:34:40.216Z,56.70
2018-01-16T12:35:45.076Z,56.60
2018-01-16T12:36:49.871Z,56.70
2018-01-16T12:37:54.740Z,56.60
2018-01-16T12:38:59.970Z,56.70
2018-01-16T12:40:04.843Z,56.70
2018-01-16T12:41:09.615Z,56.80
2018-01-16T12:42:14.287Z,56.70
2018-01-16T12:43:19.124Z,56.80
2018-01-16T12:44:23.842Z,56.80
2018-01-16T12:45:28.696Z,56.90
2018-01-16T12:46:33.431Z,57.10
2018-01-16T12:47:38.258Z,56.90
2018-01-16T12:48:43.006Z,56.90
2018-01-16T12:49:47.802Z,57.10
2018-01-16T12:50:52.540Z,56.90
2018-01-16T12:51:57.436Z,56.70
2018-01-16T12:53:02.272Z,56.50
2018-01-16T12:54:07.259Z,56.30
2018-01-16T12:55:12.169Z,56.10
2018-01-16T12:56:17.058Z,56.20
2018-01-16T12:57:21.846Z,56.10
2018-01-16T12:58:26.750Z,56.00
2018-01-16T12:59:31.741Z,55.80
2018-01-16T13:00:36.514Z,55.60
2018-01-16T13:01:41.209Z,55.40
2018-01-16T13:02:46.031Z,55.40
2018-01-16T13:03:50.819Z,55.50
2018-01-16T13:04:55.567Z,55.30
2018-01-16T13:06:00.317Z,55.20
2018-01-16T13:07:05.081Z,55.10
2018-01-16T13:08:09.884Z,55.00
2018-01-16T13:09:14.834Z,54.90
2018-01-16T13:10:19.683Z,54.80
2018-01-16T13:11:24.676Z,54.80
2018-01-16T13:12:29.550Z,54.70
2018-01-16T13:13:34.415Z,54.50
2018-01-16T13:16:45.233Z,54.50
2018-01-16T13:17:50.180Z,54.60
2018-01-16T13:18:55.087Z,54.60
2018-01-16T13:20:00.105Z,54.70
2018-01-16T13:21:04.883Z,54.70
2018-01-16T13:22:09.615Z,54.80
2018-01-16T13:23:14.363Z,54.80
2018-01-16T13:24:19.270Z,54.80
2018-01-16T13:25:24.142Z,54.70
2018-01-16T13:26:29.015Z,54.70
2018-01-16T13:27:33.854Z,54.80
2018-01-16T13:28:38.621Z,54.90
2018-01-16T13:29:43.367Z,55.00
2018-01-16T13:30:48.085Z,55.00
2018-01-16T13:31:52.970Z,55.10
2018-01-16T13:32:57.683Z,55.30
2018-01-16T13:34:02.655Z,55.40
2018-01-16T13:35:07.593Z,55.50
2018-01-16T13:36:12.468Z,55.70
2018-01-16T13:37:17.378Z,55.70
2018-01-16T13:38:22.213Z,55.70
2018-01-16T13:39:27.095Z,55.80
2018-01-16T13:40:31.833Z,55.90
2018-01-16T13:41:36.731Z,55.90
2018-01-16T13:42:41.482Z,56.00
2018-01-16T13:43:46.233Z,56.00
2018-01-16T13:44:51.013Z,56.00
2018-01-16T13:45:55.906Z,56.00
2018-01-16T13:47:00.805Z,56.10
2018-01-16T13:48:05.553Z,56.20
2018-01-16T13:49:10.466Z,56.30
2018-01-16T13:50:15.231Z,56.50
2018-01-16T13:51:20.004Z,56.60
2018-01-16T13:52:24.858Z,56.50
2018-01-16T13:53:29.731Z,56.40
2018-01-16T13:54:34.635Z,56.30
2018-01-16T13:55:39.356Z,56.40
2018-01-16T13:56:44.115Z,56.40
2018-01-16T13:57:49.147Z,56.30
2018-01-16T13:58:53.983Z,56.30
2018-01-16T13:59:58.901Z,56.20